sensor_id;sensor_type;location;lat;lon;timestamp;pressure;altitude;pressure_sealevel;temperature;humidity
59987;BME280;46181;51.498;5.392;2023-04-19T00:03:19;102544.8;;;14.58;51.05273
59987;BME280;46181;51.498;5.392;2023-04-19T00:07:49;102542.3;;;14.62;50.9082
59987;BME280;46181;51.498;5.392;2023-04-19T00:12:19;102539.2;;;14.69;50.84863
59987;BME280;46181;51.498;5.392;2023-04-19T00:16:49;102538.1;;;14.77;50.75488
59987;BME280;46181;51.498;5.392;2023-04-19T00:21:19;102541.9;;;14.83;50.625
59987;BME280;46181;51.498;5.392;2023-04-19T00:25:49;102539;;;14.86;50.44629
59987;BME280;46181;51.498;5.392;2023-04-19T00:30:20;102532.5;;;14.88;50.36914
59987;BME280;46181;51.498;5.392;2023-04-19T00:34:49;102532.3;;;14.89;50.29004
59987;BME280;46181;51.498;5.392;2023-04-19T00:39:19;102534.7;;;14.95;50.25195
59987;BME280;46181;51.498;5.392;2023-04-19T00:43:49;102529;;;15;50.24512
59987;BME280;46181;51.498;5.392;2023-04-19T00:48:19;102537.3;;;15.02;50.05371
59987;BME280;46181;51.498;5.392;2023-04-19T00:52:49;102530.7;;;15.05;49.93359
59987;BME280;46181;51.498;5.392;2023-04-19T00:57:19;102530.5;;;15.11;49.81445
59987;BME280;46181;51.498;5.392;2023-04-19T01:01:49;102524.4;;;15.08;49.87891
59987;BME280;46181;51.498;5.392;2023-04-19T01:06:19;102525.7;;;15.09;49.8916
59987;BME280;46181;51.498;5.392;2023-04-19T01:10:49;102523.2;;;15.12;49.91797
59987;BME280;46181;51.498;5.392;2023-04-19T01:15:20;102524.7;;;15.12;49.92969
59987;BME280;46181;51.498;5.392;2023-04-19T01:19:49;102530.1;;;15.16;49.89941
59987;BME280;46181;51.498;5.392;2023-04-19T01:24:19;102527.8;;;15.16;49.97949
59987;BME280;46181;51.498;5.392;2023-04-19T01:28:49;102528.3;;;15.2;50.09668
59987;BME280;46181;51.498;5.392;2023-04-19T01:33:19;102529.8;;;15.18;50.11914
59987;BME280;46181;51.498;5.392;2023-04-19T01:37:49;102526.8;;;15.16;50.16211
59987;BME280;46181;51.498;5.392;2023-04-19T01:42:19;102529.2;;;15.17;50.19727
59987;BME280;46181;51.498;5.392;2023-04-19T01:46:49;102530.2;;;15.21;50.21289
59987;BME280;46181;51.498;5.392;2023-04-19T01:51:19;102519.8;;;15.19;50.41602
59987;BME280;46181;51.498;5.392;2023-04-19T01:55:49;102515.6;;;15.21;50.49805
59987;BME280;46181;51.498;5.392;2023-04-19T02:00:20;102519.9;;;15.18;50.64355
59987;BME280;46181;51.498;5.392;2023-04-19T02:04:49;102525.2;;;15.18;50.66602
59987;BME280;46181;51.498;5.392;2023-04-19T02:09:19;102506.9;;;15.2;50.82813
59987;BME280;46181;51.498;5.392;2023-04-19T02:13:49;102501.7;;;15.23;50.84277
59987;BME280;46181;51.498;5.392;2023-04-19T02:18:19;102497.7;;;15.25;50.98145
59987;BME280;46181;51.498;5.392;2023-04-19T02:22:49;102495.6;;;15.28;51.04199
59987;BME280;46181;51.498;5.392;2023-04-19T02:27:19;102492.6;;;15.26;51.13184
59987;BME280;46181;51.498;5.392;2023-04-19T02:31:49;102494.4;;;15.29;51.21484
59987;BME280;46181;51.498;5.392;2023-04-19T02:36:19;102493.6;;;15.32;51.26367
59987;BME280;46181;51.498;5.392;2023-04-19T02:40:49;102492.5;;;15.34;51.32324
59987;BME280;46181;51.498;5.392;2023-04-19T02:45:20;102498.3;;;15.38;51.32715
59987;BME280;46181;51.498;5.392;2023-04-19T02:49:49;102488.8;;;15.38;51.36133
59987;BME280;46181;51.498;5.392;2023-04-19T02:54:19;102494.6;;;15.4;51.37598
59987;BME280;46181;51.498;5.392;2023-04-19T02:58:49;102495.9;;;15.42;51.38965
59987;BME280;46181;51.498;5.392;2023-04-19T03:03:19;102504.2;;;15.41;51.45508
59987;BME280;46181;51.498;5.392;2023-04-19T03:07:49;102503.7;;;15.42;51.62891
59987;BME280;46181;51.498;5.392;2023-04-19T03:12:19;102492.9;;;15.4;51.60352
59987;BME280;46181;51.498;5.392;2023-04-19T03:16:49;102498.5;;;15.39;51.6582
59987;BME280;46181;51.498;5.392;2023-04-19T03:21:19;102494.7;;;15.35;51.71094
59987;BME280;46181;51.498;5.392;2023-04-19T03:25:49;102489.9;;;15.31;51.83301
59987;BME280;46181;51.498;5.392;2023-04-19T03:30:20;102492.9;;;15.25;52.04199
59987;BME280;46181;51.498;5.392;2023-04-19T03:34:49;102484.4;;;15.24;52.15527
59987;BME280;46181;51.498;5.392;2023-04-19T03:39:19;102486.1;;;15.21;52.27637
59987;BME280;46181;51.498;5.392;2023-04-19T03:43:49;102479.4;;;15.19;52.43457
59987;BME280;46181;51.498;5.392;2023-04-19T03:48:19;102481.3;;;15.17;52.5
59987;BME280;46181;51.498;5.392;2023-04-19T03:52:49;102480.6;;;15.14;52.58691
59987;BME280;46181;51.498;5.392;2023-04-19T03:57:19;102479.8;;;15.11;52.5498
59987;BME280;46181;51.498;5.392;2023-04-19T04:01:49;102485.7;;;15.14;52.66699
59987;BME280;46181;51.498;5.392;2023-04-19T04:06:19;102489.7;;;15.13;52.58594
59987;BME280;46181;51.498;5.392;2023-04-19T04:10:49;102489.9;;;15.07;52.75098
59987;BME280;46181;51.498;5.392;2023-04-19T04:15:20;102487.4;;;15.06;52.60156
59987;BME280;46181;51.498;5.392;2023-04-19T04:19:49;102488.1;;;15.01;52.6748
59987;BME280;46181;51.498;5.392;2023-04-19T04:24:19;102480.8;;;14.93;52.71094
59987;BME280;46181;51.498;5.392;2023-04-19T04:28:49;102489.9;;;14.89;52.91016
59987;BME280;46181;51.498;5.392;2023-04-19T04:33:19;102492.3;;;14.88;52.90918
59987;BME280;46181;51.498;5.392;2023-04-19T04:37:49;102491.1;;;14.82;52.92383
59987;BME280;46181;51.498;5.392;2023-04-19T04:42:19;102490.9;;;14.76;53.04297
59987;BME280;46181;51.498;5.392;2023-04-19T04:46:49;102494.1;;;14.71;53.42383
59987;BME280;46181;51.498;5.392;2023-04-19T04:51:19;102495.5;;;14.66;53.36133
59987;BME280;46181;51.498;5.392;2023-04-19T04:55:49;102491.8;;;14.65;53.2002
59987;BME280;46181;51.498;5.392;2023-04-19T05:00:21;102505.6;;;14.65;53.10938
59987;BME280;46181;51.498;5.392;2023-04-19T05:04:49;102505.3;;;14.59;52.79395
59987;BME280;46181;51.498;5.392;2023-04-19T05:09:19;102508.6;;;14.41;52.89844
59987;BME280;46181;51.498;5.392;2023-04-19T05:13:49;102511.6;;;14.36;53.09766
59987;BME280;46181;51.498;5.392;2023-04-19T05:18:19;102515.3;;;14.74;53.13184
59987;BME280;46181;51.498;5.392;2023-04-19T05:22:49;102513.9;;;15.3;51.62598
59987;BME280;46181;51.498;5.392;2023-04-19T05:27:19;102511.6;;;15.73;50.0332
59987;BME280;46181;51.498;5.392;2023-04-19T05:31:49;102516.6;;;15.96;48.6416
59987;BME280;46181;51.498;5.392;2023-04-19T05:36:19;102513.5;;;16.15;48.46777
59987;BME280;46181;51.498;5.392;2023-04-19T05:40:49;102511.5;;;16.3;47.48926
59987;BME280;46181;51.498;5.392;2023-04-19T05:45:20;102516.9;;;16.4;47.17969
59987;BME280;46181;51.498;5.392;2023-04-19T05:49:49;102512.8;;;15.98;47.16992
59987;BME280;46181;51.498;5.392;2023-04-19T05:54:19;102515.6;;;15.54;48.02441
59987;BME280;46181;51.498;5.392;2023-04-19T05:58:49;102512;;;15.27;48.49805
59987;BME280;46181;51.498;5.392;2023-04-19T06:03:19;102519;;;15;49.01465
59987;BME280;46181;51.498;5.392;2023-04-19T06:07:49;102521.6;;;14.75;49.56836
59987;BME280;46181;51.498;5.392;2023-04-19T06:12:19;102528.3;;;14.68;50.03906
59987;BME280;46181;51.498;5.392;2023-04-19T06:16:49;102530;;;14.83;50.27246
59987;BME280;46181;51.498;5.392;2023-04-19T06:21:19;102531.1;;;14.99;49.62988
59987;BME280;46181;51.498;5.392;2023-04-19T06:25:49;102530;;;15.11;49.15332
59987;BME280;46181;51.498;5.392;2023-04-19T06:30:20;102526.8;;;15.18;48.79492
59987;BME280;46181;51.498;5.392;2023-04-19T06:34:49;102529.6;;;15.2;48.56934
59987;BME280;46181;51.498;5.392;2023-04-19T06:39:19;102527;;;15.24;47.99316
59987;BME280;46181;51.498;5.392;2023-04-19T06:43:49;102517.3;;;15.32;47.23633
59987;BME280;46181;51.498;5.392;2023-04-19T06:48:19;102514.8;;;15.35;46.38281
59987;BME280;46181;51.498;5.392;2023-04-19T06:52:50;102526.2;;;15.44;45.35254
59987;BME280;46181;51.498;5.392;2023-04-19T06:57:19;102509.3;;;15.45;44.69043
59987;BME280;46181;51.498;5.392;2023-04-19T07:01:49;102511.4;;;15.58;44.71484
59987;BME280;46181;51.498;5.392;2023-04-19T07:06:19;102519.5;;;15.71;43.56152
59987;BME280;46181;51.498;5.392;2023-04-19T07:10:49;102519.5;;;15.81;43.05762
59987;BME280;46181;51.498;5.392;2023-04-19T07:15:20;102521.6;;;15.94;42.42871
59987;BME280;46181;51.498;5.392;2023-04-19T07:19:50;102515;;;16;42.11426
59987;BME280;46181;51.498;5.392;2023-04-19T07:24:19;102522.8;;;16.11;41.5752
59987;BME280;46181;51.498;5.392;2023-04-19T07:28:50;102513.8;;;16.22;41.36719
59987;BME280;46181;51.498;5.392;2023-04-19T07:33:19;102514.8;;;16.37;41.2666
59987;BME280;46181;51.498;5.392;2023-04-19T07:37:50;102506.3;;;16.52;40.39746
59987;BME280;46181;51.498;5.392;2023-04-19T07:42:19;102510.6;;;16.51;40.28125
59987;BME280;46181;51.498;5.392;2023-04-19T07:46:50;102508.9;;;16.62;40.06152
59987;BME280;46181;51.498;5.392;2023-04-19T07:51:20;102502.3;;;16.67;38.94141
59987;BME280;46181;51.498;5.392;2023-04-19T07:55:49;102504.7;;;16.82;39.02344
59987;BME280;46181;51.498;5.392;2023-04-19T08:00:21;102512;;;16.84;38.55469
59987;BME280;46181;51.498;5.392;2023-04-19T08:04:49;102511.1;;;16.87;37.78711
59987;BME280;46181;51.498;5.392;2023-04-19T08:09:19;102498.8;;;16.88;38.27148
59987;BME280;46181;51.498;5.392;2023-04-19T08:13:49;102494.8;;;16.96;37.70313
59987;BME280;46181;51.498;5.392;2023-04-19T08:18:19;102499.4;;;17.09;37.4043
59987;BME280;46181;51.498;5.392;2023-04-19T08:22:49;102499.4;;;17.12;37.09668
59987;BME280;46181;51.498;5.392;2023-04-19T08:27:20;102497;;;17.22;36.94336
59987;BME280;46181;51.498;5.392;2023-04-19T08:31:51;102488.3;;;17.22;36.93164
59987;BME280;46181;51.498;5.392;2023-04-19T08:36:20;102496.6;;;17.31;36.4209
59987;BME280;46181;51.498;5.392;2023-04-19T08:40:53;102491.5;;;17.33;36.37695
59987;BME280;46181;51.498;5.392;2023-04-19T08:45:20;102479.1;;;17.49;35.34375
59987;BME280;46181;51.498;5.392;2023-04-19T08:49:50;102478;;;17.6;34.81152
59987;BME280;46181;51.498;5.392;2023-04-19T08:54:19;102475.3;;;17.64;33.97266
59987;BME280;46181;51.498;5.392;2023-04-19T08:58:49;102484.8;;;17.61;33.3252
59987;BME280;46181;51.498;5.392;2023-04-19T09:03:19;102482.3;;;17.72;33.5293
59987;BME280;46181;51.498;5.392;2023-04-19T09:07:50;102474.7;;;17.74;33.11523
59987;BME280;46181;51.498;5.392;2023-04-19T09:12:27;102467.5;;;17.84;33.50391
59987;BME280;46181;51.498;5.392;2023-04-19T09:16:50;102494.1;;;18.12;32.98242
59987;BME280;46181;51.498;5.392;2023-04-19T09:21:35;102472.8;;;18.09;32.47266
59987;BME280;46181;51.498;5.392;2023-04-19T09:25:59;102474.6;;;18.12;31.96777
59987;BME280;46181;51.498;5.392;2023-04-19T09:30:20;102470.2;;;18.27;31.2627
59987;BME280;46181;51.498;5.392;2023-04-19T09:34:58;102471.2;;;18.2;31.34961
59987;BME280;46181;51.498;5.392;2023-04-19T09:39:30;102488.3;;;18.39;31.12109
59987;BME280;46181;51.498;5.392;2023-04-19T09:43:49;102474.3;;;18.39;30.51953
59987;BME280;46181;51.498;5.392;2023-04-19T09:48:21;102465.7;;;18.51;30.26172
59987;BME280;46181;51.498;5.392;2023-04-19T09:52:49;102456;;;18.48;29.77441
59987;BME280;46181;51.498;5.392;2023-04-19T09:57:20;102458.1;;;18.46;29.82031
59987;BME280;46181;51.498;5.392;2023-04-19T10:01:52;102454.5;;;18.44;29.54102
59987;BME280;46181;51.498;5.392;2023-04-19T10:06:21;102463.7;;;18.33;29.69531
59987;BME280;46181;51.498;5.392;2023-04-19T10:10:50;102472.6;;;18.35;30.22852
59987;BME280;46181;51.498;5.392;2023-04-19T10:15:21;102474;;;18.42;28.08301
59987;BME280;46181;51.498;5.392;2023-04-19T10:19:51;102461.7;;;18.61;27.19238
59987;BME280;46181;51.498;5.392;2023-04-19T10:24:21;102457.9;;;18.71;27.38477
59987;BME280;46181;51.498;5.392;2023-04-19T10:28:50;102449.7;;;18.63;27.67969
59987;BME280;46181;51.498;5.392;2023-04-19T10:33:33;102444.2;;;18.56;28.3584
59987;BME280;46181;51.498;5.392;2023-04-19T10:38:10;102447.7;;;18.56;28.12695
59987;BME280;46181;51.498;5.392;2023-04-19T10:42:19;102458;;;18.83;26.83691
59987;BME280;46181;51.498;5.392;2023-04-19T10:46:49;102469.1;;;18.8;25.6416
59987;BME280;46181;51.498;5.392;2023-04-19T10:51:25;102455.5;;;18.58;25.65234
59987;BME280;46181;51.498;5.392;2023-04-19T10:56:00;102440.3;;;18.5;25.9707
59987;BME280;46181;51.498;5.392;2023-04-19T11:00:33;102439.6;;;18.44;25.55176
59987;BME280;46181;51.498;5.392;2023-04-19T11:05:02;102430.5;;;18.36;25.48926
59987;BME280;46181;51.498;5.392;2023-04-19T11:09:24;102426.4;;;18.45;25.49414
59987;BME280;46181;51.498;5.392;2023-04-19T11:13:50;102426.8;;;18.46;25.2627
59987;BME280;46181;51.498;5.392;2023-04-19T11:18:25;102431.6;;;18.55;25.40723
59987;BME280;46181;51.498;5.392;2023-04-19T11:22:50;102468.8;;;18.52;24.62988
59987;BME280;46181;51.498;5.392;2023-04-19T11:27:19;102421;;;18.45;24.76465
59987;BME280;46181;51.498;5.392;2023-04-19T11:31:51;102435.2;;;18.53;25.19727
59987;BME280;46181;51.498;5.392;2023-04-19T11:36:23;102418.2;;;18.63;25.82813
59987;BME280;46181;51.498;5.392;2023-04-19T11:40:49;102427.6;;;18.48;26.13184
59987;BME280;46181;51.498;5.392;2023-04-19T11:45:32;102414.1;;;18.5;26.26074
59987;BME280;46181;51.498;5.392;2023-04-19T11:49:49;102392;;;18.52;26.35449
59987;BME280;46181;51.498;5.392;2023-04-19T11:54:26;102397.6;;;18.62;26.40723
59987;BME280;46181;51.498;5.392;2023-04-19T11:58:50;102387.3;;;18.64;26.55762
59987;BME280;46181;51.498;5.392;2023-04-19T12:03:20;102385.7;;;18.78;25.62891
59987;BME280;46181;51.498;5.392;2023-04-19T12:08:05;102376.8;;;18.65;25.85254
59987;BME280;46181;51.498;5.392;2023-04-19T12:16:53;102364;;;18.94;24.89648
59987;BME280;46181;51.498;5.392;2023-04-19T12:21:27;102367.1;;;18.97;24.51563
59987;BME280;46181;51.498;5.392;2023-04-19T12:25:50;102354.2;;;18.95;22.50879
59987;BME280;46181;51.498;5.392;2023-04-19T12:30:21;102353.5;;;19.04;23.16406
59987;BME280;46181;51.498;5.392;2023-04-19T12:34:50;102353.8;;;19.14;23.21484
59987;BME280;46181;51.498;5.392;2023-04-19T12:39:19;102343.8;;;19.21;23.2998
59987;BME280;46181;51.498;5.392;2023-04-19T12:43:49;102346.3;;;19.19;23.64648
59987;BME280;46181;51.498;5.392;2023-04-19T12:48:19;102338.6;;;19.28;23.48828
59987;BME280;46181;51.498;5.392;2023-04-19T12:52:50;102342;;;19.28;23.02539
59987;BME280;46181;51.498;5.392;2023-04-19T12:57:20;102331.7;;;19.39;22.85645
59987;BME280;46181;51.498;5.392;2023-04-19T13:01:49;102322;;;19.37;21.78809
59987;BME280;46181;51.498;5.392;2023-04-19T13:06:20;102330.9;;;19.4;21.08105
59987;BME280;46181;51.498;5.392;2023-04-19T13:10:49;102313.7;;;19.36;20.8584
59987;BME280;46181;51.498;5.392;2023-04-19T13:15:20;102306;;;19.52;20.83105
59987;BME280;46181;51.498;5.392;2023-04-19T13:19:50;102299.7;;;19.54;20.14648
59987;BME280;46181;51.498;5.392;2023-04-19T13:24:20;102285.9;;;19.55;19.75195
59987;BME280;46181;51.498;5.392;2023-04-19T13:28:50;102279.3;;;19.65;20.0127
59987;BME280;46181;51.498;5.392;2023-04-19T13:33:20;102275.1;;;19.71;19.94531
59987;BME280;46181;51.498;5.392;2023-04-19T13:37:50;102269.1;;;19.75;20.41211
59987;BME280;46181;51.498;5.392;2023-04-19T13:42:20;102278.7;;;19.76;20.31934
59987;BME280;46181;51.498;5.392;2023-04-19T13:46:50;102277.4;;;19.72;20.09668
59987;BME280;46181;51.498;5.392;2023-04-19T13:51:20;102262.5;;;19.78;20.23926
59987;BME280;46181;51.498;5.392;2023-04-19T13:55:50;102257.3;;;19.83;20.52051
59987;BME280;46181;51.498;5.392;2023-04-19T14:00:21;102269.6;;;19.84;21.10156
59987;BME280;46181;51.498;5.392;2023-04-19T14:04:50;102242.7;;;19.87;20.95215
59987;BME280;46181;51.498;5.392;2023-04-19T14:09:20;102245;;;19.87;21.13867
59987;BME280;46181;51.498;5.392;2023-04-19T14:13:50;102240.6;;;19.9;21.51172
59987;BME280;46181;51.498;5.392;2023-04-19T14:18:20;102229.1;;;19.86;21.68457
59987;BME280;46181;51.498;5.392;2023-04-19T14:22:50;102228;;;19.87;21.64941
59987;BME280;46181;51.498;5.392;2023-04-19T14:27:20;102223;;;19.87;21.54492
59987;BME280;46181;51.498;5.392;2023-04-19T14:31:50;102214.3;;;19.87;21.82422
59987;BME280;46181;51.498;5.392;2023-04-19T14:36:20;102211.4;;;19.81;21.75195
59987;BME280;46181;51.498;5.392;2023-04-19T14:40:50;102201.9;;;19.86;22.05664
59987;BME280;46181;51.498;5.392;2023-04-19T14:45:20;102190.5;;;20.03;21.90137
59987;BME280;46181;51.498;5.392;2023-04-19T14:49:50;102192;;;19.96;21.46875
59987;BME280;46181;51.498;5.392;2023-04-19T14:54:20;102189.5;;;19.92;21.37305
59987;BME280;46181;51.498;5.392;2023-04-19T14:58:50;102188.5;;;19.86;21.26563
59987;BME280;46181;51.498;5.392;2023-04-19T15:03:20;102178.5;;;19.88;21.46484
59987;BME280;46181;51.498;5.392;2023-04-19T15:07:50;102176.3;;;19.75;21.7832
59987;BME280;46181;51.498;5.392;2023-04-19T15:12:20;102175.3;;;19.82;22.05371
59987;BME280;46181;51.498;5.392;2023-04-19T15:16:50;102164.4;;;19.83;22.19434
59987;BME280;46181;51.498;5.392;2023-04-19T15:21:21;102182;;;19.95;22.50195
59987;BME280;46181;51.498;5.392;2023-04-19T15:25:50;102156.6;;;19.92;22.22168
59987;BME280;46181;51.498;5.392;2023-04-19T15:30:20;102150.2;;;19.92;22.22168
59987;BME280;46181;51.498;5.392;2023-04-19T15:34:50;102153.4;;;19.87;22.27734
59987;BME280;46181;51.498;5.392;2023-04-19T15:39:20;102155.8;;;19.8;22.29688
59987;BME280;46181;51.498;5.392;2023-04-19T15:43:50;102150.4;;;19.67;22.24414
59987;BME280;46181;51.498;5.392;2023-04-19T15:48:20;102141.5;;;19.61;23.32129
59987;BME280;46181;51.498;5.392;2023-04-19T15:52:50;102151.1;;;19.63;23.43848
59987;BME280;46181;51.498;5.392;2023-04-19T15:57:20;102161.3;;;19.46;23.03418
59987;BME280;46181;51.498;5.392;2023-04-19T16:01:50;102139.8;;;19.43;22.97461
59987;BME280;46181;51.498;5.392;2023-04-19T16:06:20;102136.6;;;19.34;22.90039
59987;BME280;46181;51.498;5.392;2023-04-19T16:10:50;102137.2;;;19.25;23.2793
59987;BME280;46181;51.498;5.392;2023-04-19T16:15:20;102152.4;;;19.21;23.21875
59987;BME280;46181;51.498;5.392;2023-04-19T16:19:50;102133.5;;;19.04;23.63867
59987;BME280;46181;51.498;5.392;2023-04-19T16:24:20;102133.2;;;18.97;24.04004
59987;BME280;46181;51.498;5.392;2023-04-19T16:28:50;102121;;;18.96;24.45801
59987;BME280;46181;51.498;5.392;2023-04-19T16:33:20;102122.6;;;18.87;24.70703
59987;BME280;46181;51.498;5.392;2023-04-19T16:37:50;102127.5;;;18.82;24.72754
59987;BME280;46181;51.498;5.392;2023-04-19T16:42:20;102121.6;;;18.79;25.02734
59987;BME280;46181;51.498;5.392;2023-04-19T16:46:53;102121.6;;;18.77;24.93359
59987;BME280;46181;51.498;5.392;2023-04-19T16:51:20;102118.2;;;18.73;25.02344
59987;BME280;46181;51.498;5.392;2023-04-19T16:55:50;102129.5;;;18.63;24.56641
59987;BME280;46181;51.498;5.392;2023-04-19T17:00:21;102116.6;;;18.54;24.11035
59987;BME280;46181;51.498;5.392;2023-04-19T17:04:50;102123.5;;;18.5;24.47754
59987;BME280;46181;51.498;5.392;2023-04-19T17:09:20;102104.7;;;18.45;24.26758
59987;BME280;46181;51.498;5.392;2023-04-19T17:13:50;102107.5;;;18.39;24.34473
59987;BME280;46181;51.498;5.392;2023-04-19T17:18:20;102101;;;18.33;24.71191
59987;BME280;46181;51.498;5.392;2023-04-19T17:22:50;102109.2;;;18.3;24.89551
59987;BME280;46181;51.498;5.392;2023-04-19T17:27:20;102121.5;;;18.25;25.19336
59987;BME280;46181;51.498;5.392;2023-04-19T17:31:50;102092;;;18.16;25.38477
59987;BME280;46181;51.498;5.392;2023-04-19T17:36:20;102113.7;;;18.12;25.32422
59987;BME280;46181;51.498;5.392;2023-04-19T17:40:50;102112;;;18.08;24.65137
59987;BME280;46181;51.498;5.392;2023-04-19T17:45:20;102107.3;;;17.98;24.79688
59987;BME280;46181;51.498;5.392;2023-04-19T17:50:02;102104.5;;;17.91;24.74609
59987;BME280;46181;51.498;5.392;2023-04-19T17:54:20;102103.3;;;17.84;25.18164
59987;BME280;46181;51.498;5.392;2023-04-19T17:58:50;102105.6;;;17.81;25.21387
59987;BME280;46181;51.498;5.392;2023-04-19T18:03:20;102105.5;;;17.76;25.01465
59987;BME280;46181;51.498;5.392;2023-04-19T18:07:50;102105.4;;;17.66;25.29785
59987;BME280;46181;51.498;5.392;2023-04-19T18:12:20;102105.9;;;17.55;25.15332
59987;BME280;46181;51.498;5.392;2023-04-19T18:16:50;102110.1;;;17.43;24.65039
59987;BME280;46181;51.498;5.392;2023-04-19T18:25:58;102108.6;;;17.24;24.30469
59987;BME280;46181;51.498;5.392;2023-04-19T18:30:20;102113.1;;;17.12;24.52832
59987;BME280;46181;51.498;5.392;2023-04-19T18:34:50;102118.4;;;17.02;24.66113
59987;BME280;46181;51.498;5.392;2023-04-19T18:39:20;102121.5;;;16.92;24.39063
59987;BME280;46181;51.498;5.392;2023-04-19T18:43:50;102129.3;;;16.84;24.63965
59987;BME280;46181;51.498;5.392;2023-04-19T18:48:20;102136.4;;;16.71;24.78223
59987;BME280;46181;51.498;5.392;2023-04-19T18:52:50;102141.8;;;16.65;24.94043
59987;BME280;46181;51.498;5.392;2023-04-19T18:57:20;102149.3;;;16.55;24.80859
59987;BME280;46181;51.498;5.392;2023-04-19T19:01:50;102147.4;;;16.53;25.12988
59987;BME280;46181;51.498;5.392;2023-04-19T19:06:20;102157.1;;;16.46;24.96387
59987;BME280;46181;51.498;5.392;2023-04-19T19:10:50;102157.5;;;16.4;24.99512
59987;BME280;46181;51.498;5.392;2023-04-19T19:15:21;102157.8;;;16.29;25.33496
59987;BME280;46181;51.498;5.392;2023-04-19T19:19:50;102160;;;16.21;25.51367
59987;BME280;46181;51.498;5.392;2023-04-19T19:24:20;102166.8;;;16.09;25.8418
59987;BME280;46181;51.498;5.392;2023-04-19T19:28:50;102167.3;;;15.97;26.27148
59987;BME280;46181;51.498;5.392;2023-04-19T19:33:20;102165.4;;;15.86;26.72461
59987;BME280;46181;51.498;5.392;2023-04-19T19:37:50;102164.2;;;15.74;26.96973
59987;BME280;46181;51.498;5.392;2023-04-19T19:42:23;102165.3;;;15.59;27.26074
59987;BME280;46181;51.498;5.392;2023-04-19T19:46:50;102166.8;;;15.51;27.4043
59987;BME280;46181;51.498;5.392;2023-04-19T19:51:20;102169.7;;;15.45;27.43457
59987;BME280;46181;51.498;5.392;2023-04-19T19:55:50;102180.2;;;15.34;27.43945
59987;BME280;46181;51.498;5.392;2023-04-19T20:00:21;102184.3;;;15.22;27.45508
59987;BME280;46181;51.498;5.392;2023-04-19T20:04:50;102181.9;;;15.18;27.49902
59987;BME280;46181;51.498;5.392;2023-04-19T20:09:20;102192;;;15.11;27.49316
59987;BME280;46181;51.498;5.392;2023-04-19T20:13:50;102190.8;;;15.05;27.50195
59987;BME280;46181;51.498;5.392;2023-04-19T20:18:20;102193.5;;;14.96;27.68066
59987;BME280;46181;51.498;5.392;2023-04-19T20:22:50;102199.2;;;14.88;27.8125
59987;BME280;46181;51.498;5.392;2023-04-19T20:27:20;102194;;;14.81;27.80859
59987;BME280;46181;51.498;5.392;2023-04-19T20:31:50;102197.1;;;14.79;27.7373
59987;BME280;46181;51.498;5.392;2023-04-19T20:36:20;102201.3;;;14.7;27.9043
59987;BME280;46181;51.498;5.392;2023-04-19T20:40:50;102197.3;;;14.63;27.96875
59987;BME280;46181;51.498;5.392;2023-04-19T20:45:20;102195.6;;;14.54;28.13477
59987;BME280;46181;51.498;5.392;2023-04-19T20:49:50;102197.4;;;14.49;28.25781
59987;BME280;46181;51.498;5.392;2023-04-19T20:54:20;102200.8;;;14.43;28.37988
59987;BME280;46181;51.498;5.392;2023-04-19T20:58:50;102202.7;;;14.37;28.61621
59987;BME280;46181;51.498;5.392;2023-04-19T21:03:20;102210.7;;;14.28;28.77051
59987;BME280;46181;51.498;5.392;2023-04-19T21:07:50;102209.1;;;14.22;29.15625
59987;BME280;46181;51.498;5.392;2023-04-19T21:12:20;102208.8;;;14.12;29.30957
59987;BME280;46181;51.498;5.392;2023-04-19T21:16:50;102206.1;;;14.03;29.50879
59987;BME280;46181;51.498;5.392;2023-04-19T21:21:20;102214.6;;;13.96;29.74512
59987;BME280;46181;51.498;5.392;2023-04-19T21:25:50;102214.4;;;13.87;29.83008
59987;BME280;46181;51.498;5.392;2023-04-19T21:30:20;102211.4;;;13.81;29.84863
59987;BME280;46181;51.498;5.392;2023-04-19T21:34:51;102210.3;;;13.76;30.06348
59987;BME280;46181;51.498;5.392;2023-04-19T21:39:20;102211.7;;;13.72;30.02539
59987;BME280;46181;51.498;5.392;2023-04-19T21:43:50;102208;;;13.65;30.13574
59987;BME280;46181;51.498;5.392;2023-04-19T21:48:20;102215.3;;;13.63;30.11133
59987;BME280;46181;51.498;5.392;2023-04-19T21:52:50;102219.7;;;13.58;30.13086
59987;BME280;46181;51.498;5.392;2023-04-19T21:57:20;102218.2;;;13.55;30.19727
59987;BME280;46181;51.498;5.392;2023-04-19T22:01:50;102222.4;;;13.45;30.31641
59987;BME280;46181;51.498;5.392;2023-04-19T22:06:20;102214.3;;;13.38;30.27734
59987;BME280;46181;51.498;5.392;2023-04-19T22:10:50;102214.1;;;13.33;30.26172
59987;BME280;46181;51.498;5.392;2023-04-19T22:15:20;102212.3;;;13.26;30.31445
59987;BME280;46181;51.498;5.392;2023-04-19T22:19:50;102220.1;;;13.23;30.26563
59987;BME280;46181;51.498;5.392;2023-04-19T22:24:20;102218.8;;;13.2;30.22949
59987;BME280;46181;51.498;5.392;2023-04-19T22:28:50;102205.2;;;13.13;30.20313
59987;BME280;46181;51.498;5.392;2023-04-19T22:33:20;102206.8;;;13.05;30.35645
59987;BME280;46181;51.498;5.392;2023-04-19T22:37:50;102202.4;;;13.01;30.3418
59987;BME280;46181;51.498;5.392;2023-04-19T22:42:20;102194.9;;;12.92;30.41602
59987;BME280;46181;51.498;5.392;2023-04-19T22:46:50;102195.9;;;12.87;30.44727
59987;BME280;46181;51.498;5.392;2023-04-19T22:51:20;102184.4;;;12.79;30.60059
59987;BME280;46181;51.498;5.392;2023-04-19T22:55:50;102185.5;;;12.71;30.73242
59987;BME280;46181;51.498;5.392;2023-04-19T23:00:21;102187.3;;;12.65;30.77441
59987;BME280;46181;51.498;5.392;2023-04-19T23:04:50;102184.8;;;12.59;30.81543
59987;BME280;46181;51.498;5.392;2023-04-19T23:09:20;102187.6;;;12.55;30.82422
59987;BME280;46181;51.498;5.392;2023-04-19T23:13:50;102185.2;;;12.49;30.79688